Time;durP1;ratioP1;P1;durP2;ratioP2;P2;SDS_P1;SDS_P2;PMS_P1;PMS_P2;Temp;Humidity;BMP_temperature;BMP_pressure;BME280_temperature;BME280_humidity;BME280_pressure;Samples;Min_cycle;Max_cycle;Signal;HPM_P1;HPM_P2
2021/08/04 04:16:33;;;;;;;4.70;2.10;;;;;;;13.92;94.04;98583.13;5386785;23;20052;-71
2021/08/04 04:18:59;;;;;;;3.35;2.05;;;;;;;13.90;92.62;98587.56;4915703;29;20076;-71
2021/08/04 04:21:24;;;;;;;6.20;2.10;;;;;;;13.90;93.50;98577.13;4915614;29;20030;-71
2021/08/04 04:23:49;;;;;;;3.80;2.42;;;;;;;13.92;93.53;98590.09;4915746;29;20035;-71
2021/08/04 04:26:15;;;;;;;5.57;2.40;;;;;;;13.83;93.92;98591.28;4915589;29;20393;-71
2021/08/04 04:28:40;;;;;;;5.10;2.55;;;;;;;13.77;93.76;98586.25;4915713;29;20051;-71
2021/08/04 04:31:05;;;;;;;2.70;2.17;;;;;;;13.83;94.17;98586.06;4916005;29;20032;-73
2021/08/04 04:33:30;;;;;;;8.88;2.38;;;;;;;13.89;93.79;98591.91;4915466;29;20059;-73
2021/08/04 04:35:58;;;;;;;11.10;2.30;;;;;;;13.91;93.95;98594.44;4915289;29;20028;-73
2021/08/04 04:38:23;;;;;;;6.05;2.40;;;;;;;13.87;94.22;98595.47;4915571;29;20044;-73
2021/08/04 04:40:48;;;;;;;2.58;2.38;;;;;;;13.88;94.04;98594.59;4916420;29;20109;-73
2021/08/04 04:43:14;;;;;;;4.60;2.33;;;;;;;13.94;93.05;98594.34;4919317;29;20080;-73
2021/08/04 04:45:39;;;;;;;4.68;2.03;;;;;;;14.07;92.54;98594.75;4919339;29;20470;-73
2021/08/04 04:48:05;;;;;;;3.38;2.55;;;;;;;13.87;92.92;98598.06;4919236;29;20111;-73
2021/08/04 04:50:32;;;;;;;5.65;2.47;;;;;;;14.04;93.49;98595.75;4919250;29;20103;-72
2021/08/04 04:52:57;;;;;;;2.15;1.92;;;;;;;13.91;92.37;98594.44;4919190;29;20075;-73
2021/08/04 04:55:22;;;;;;;4.05;2.10;;;;;;;13.97;92.91;98591.63;4918969;29;20032;-73
2021/08/04 04:57:48;;;;;;;4.20;2.50;;;;;;;13.98;92.90;98590.75;4919067;29;20099;-73
2021/08/04 05:00:13;;;;;;;2.75;2.22;;;;;;;14.23;92.47;98595.09;4919150;29;20028;-73
2021/08/04 05:02:39;;;;;;;3.25;2.25;;;;;;;14.16;91.63;98589.22;4918607;29;20027;-73
2021/08/04 05:05:06;;;;;;;2.03;1.88;;;;;;;14.10;91.39;98590.31;4918696;29;20492;-73
2021/08/04 05:07:32;;;;;;;4.03;1.98;;;;;;;14.34;91.34;98593.78;4918986;29;20039;-73
2021/08/04 05:09:57;;;;;;;5.57;2.25;;;;;;;14.52;90.01;98597.53;4918860;29;20034;-73
2021/08/04 05:12:22;;;;;;;3.90;2.35;;;;;;;14.59;89.67;98598.13;4918661;29;20141;-73
2021/08/04 05:14:48;;;;;;;5.22;2.38;;;;;;;14.45;90.21;98596.00;4918736;29;20103;-73
2021/08/04 05:17:13;;;;;;;6.35;2.35;;;;;;;14.23;91.17;98605.53;4918492;29;20036;-73
2021/08/04 05:19:39;;;;;;;2.78;2.00;;;;;;;14.32;90.20;98597.38;4918530;29;20030;-73
2021/08/04 05:22:04;;;;;;;5.68;2.22;;;;;;;14.52;90.82;98602.75;4918563;29;20119;-73
2021/08/04 05:24:30;;;;;;;5.25;2.15;;;;;;;14.81;89.17;98603.41;4910562;29;20020;-73
2021/08/04 05:26:55;;;;;;;2.17;1.83;;;;;;;14.91;88.21;98600.38;4918401;29;20500;-73
2021/08/04 05:29:20;;;;;;;3.55;1.80;;;;;;;15.08;87.70;98602.31;4918451;29;20071;-73
2021/08/04 05:31:46;;;;;;;2.75;2.20;;;;;;;15.00;86.82;98609.63;4918316;29;20024;-73
2021/08/04 05:34:11;;;;;;;2.45;2.25;;;;;;;15.09;87.49;98609.28;4917573;29;20847;-73
2021/08/04 05:36:36;;;;;;;4.45;2.25;;;;;;;15.01;86.85;98613.09;4918340;29;20032;-73
2021/08/04 05:39:02;;;;;;;4.40;2.08;;;;;;;15.09;87.33;98613.66;4918305;29;20064;-73
2021/08/04 05:41:28;;;;;;;2.65;2.30;;;;;;;15.09;86.18;98621.47;4917811;29;20087;-73
2021/08/04 05:43:53;;;;;;;5.82;2.30;;;;;;;15.19;85.92;98619.34;4917562;29;20035;-73
2021/08/04 05:46:18;;;;;;;2.30;2.10;;;;;;;15.24;85.95;98618.25;4917396;29;20055;-71
2021/08/04 05:48:44;;;;;;;4.97;2.20;;;;;;;15.44;85.07;98617.47;4918736;29;20051;-71
2021/08/04 05:51:09;;;;;;;3.53;2.00;;;;;;;15.20;85.56;98615.84;4917677;29;20024;-71
2021/08/04 05:53:34;;;;;;;3.83;1.70;;;;;;;15.35;84.90;98620.44;4918111;29;20529;-73
2021/08/04 05:55:59;;;;;;;3.88;2.00;;;;;;;15.33;83.36;98611.84;4917178;29;20016;-74
2021/08/04 05:58:25;;;;;;;2.75;1.90;;;;;;;15.68;81.68;98610.44;4918077;29;20164;-74
2021/08/04 06:00:50;;;;;;;2.80;2.03;;;;;;;15.87;81.59;98607.91;4917963;29;20111;-74
2021/08/04 06:03:15;;;;;;;1.80;1.70;;;;;;;16.11;78.32;98601.63;4913701;29;20024;-74
2021/08/04 06:05:41;;;;;;;2.95;2.00;;;;;;;16.39;79.32;98595.16;4917884;29;20028;-74
2021/08/04 06:08:07;;;;;;;2.30;1.58;;;;;;;17.08;76.62;98595.50;4917173;29;20032;-74
2021/08/04 06:10:34;;;;;;;1.77;1.67;;;;;;;17.28;75.25;98596.31;4917872;29;20066;-74
2021/08/04 06:12:59;;;;;;;4.03;1.98;;;;;;;17.50;72.97;98593.50;4917649;29;20041;-74
2021/08/04 06:15:24;;;;;;;2.08;1.90;;;;;;;17.57;71.21;98593.13;4917576;29;20028;-74
2021/08/04 06:17:50;;;;;;;2.30;1.90;;;;;;;17.79;70.32;98603.41;4917349;29;20039;-74
2021/08/04 06:20:15;;;;;;;3.17;1.92;;;;;;;17.83;68.11;98604.97;4917177;29;20087;-74
2021/08/04 06:22:40;;;;;;;5.50;1.90;;;;;;;17.37;70.93;98601.97;4917430;29;20421;-74
2021/08/04 06:25:06;;;;;;;4.40;1.83;;;;;;;17.61;69.24;98605.16;4917504;29;20115;-74
2021/08/04 06:27:31;;;;;;;9.75;1.90;;;;;;;18.00;69.00;98601.50;4917496;29;20104;-74
2021/08/04 06:29:57;;;;;;;2.50;1.60;;;;;;;17.81;68.03;98603.34;4917041;29;20103;-74
2021/08/04 06:32:22;;;;;;;2.75;1.95;;;;;;;18.24;68.22;98602.84;4913133;29;20020;-74
2021/08/04 06:34:47;;;;;;;6.03;2.03;;;;;;;18.77;65.97;98603.59;4917151;29;20024;-74
2021/08/04 06:37:13;;;;;;;1.80;1.60;;;;;;;19.67;64.94;98601.19;4917287;29;20032;-74
2021/08/04 06:39:38;;;;;;;2.20;1.90;;;;;;;20.58;59.89;98614.25;4917248;29;20470;-74
2021/08/04 06:42:04;;;;;;;3.03;1.50;;;;;;;20.47;57.60;98612.28;4916523;29;20040;-74
2021/08/04 06:44:30;;;;;;;2.65;1.63;;;;;;;20.34;57.73;98616.53;4917201;29;20044;-74
2021/08/04 06:46:58;;;;;;;3.38;2.05;;;;;;;19.33;62.01;98622.41;4916967;29;20159;-74
2021/08/04 06:49:24;;;;;;;1.40;1.20;;;;;;;19.97;60.14;98621.38;4916739;29;20024;-73
2021/08/04 06:51:49;;;;;;;4.13;1.77;;;;;;;20.12;58.65;98617.00;4914193;29;20637;-73
2021/08/04 06:54:15;;;;;;;1.92;1.60;;;;;;;20.05;58.61;98621.75;4916249;29;20156;-74
2021/08/04 06:56:40;;;;;;;3.55;1.67;;;;;;;20.01;60.11;98620.25;4916908;29;20482;-74
2021/08/04 06:59:05;;;;;;;4.18;1.50;;;;;;;20.24;59.65;98627.63;4909938;29;20077;-74
2021/08/04 07:01:31;;;;;;;5.25;1.98;;;;;;;20.41;58.46;98629.25;4915067;29;20016;-74
2021/08/04 07:03:56;;;;;;;1.75;1.50;;;;;;;20.46;56.50;98626.34;4912306;29;20056;-74
2021/08/04 07:06:22;;;;;;;2.08;1.40;;;;;;;20.52;56.22;98615.47;4916445;29;20295;-74
2021/08/04 07:08:47;;;;;;;1.80;1.50;;;;;;;20.87;54.85;98621.19;4916726;29;20378;-74
2021/08/04 07:11:12;;;;;;;2.95;2.08;;;;;;;20.38;56.25;98629.44;4916654;29;20115;-73
2021/08/04 07:13:38;;;;;;;1.95;1.48;;;;;;;21.02;53.78;98620.22;4916651;29;20052;-74
2021/08/04 07:16:03;;;;;;;1.50;1.40;;;;;;;20.53;54.82;98625.91;4915770;29;20111;-73
2021/08/04 07:18:29;;;;;;;1.50;1.30;;;;;;;20.62;54.58;98621.88;4916347;29;20032;-73
2021/08/04 07:20:55;;;;;;;1.83;1.50;;;;;;;20.07;54.73;98625.16;4916595;29;20470;-70
2021/08/04 07:23:21;;;;;;;1.60;1.50;;;;;;;19.96;55.67;98622.31;4916549;29;20024;-70
2021/08/04 07:25:46;;;;;;;1.63;1.52;;;;;;;19.52;56.54;98618.66;4916356;29;20036;-70
2021/08/04 07:28:12;;;;;;;1.55;1.45;;;;;;;19.46;56.63;98613.75;4916203;29;20028;-70
2021/08/04 07:30:37;;;;;;;2.35;1.65;;;;;;;19.73;56.20;98610.53;4916393;29;20083;-70
2021/08/04 07:33:03;;;;;;;1.58;1.48;;;;;;;20.04;54.26;98614.81;4916286;29;20024;-70
2021/08/04 07:35:28;;;;;;;1.50;1.38;;;;;;;19.94;53.99;98613.66;4915993;29;20016;-70
2021/08/04 07:37:53;;;;;;;3.28;1.30;;;;;;;20.58;52.13;98615.09;4915832;29;20028;-70
2021/08/04 07:40:20;;;;;;;1.73;1.58;;;;;;;20.73;52.56;98614.13;4915878;29;20032;-72
2021/08/04 07:42:46;;;;;;;1.85;1.58;;;;;;;21.07;52.98;98612.03;4916162;29;20027;-72
2021/08/04 07:45:12;;;;;;;3.05;1.60;;;;;;;21.29;53.63;98617.63;4916087;29;20020;-72
2021/08/04 07:47:37;;;;;;;2.63;1.63;;;;;;;21.48;52.91;98616.47;4915927;29;20593;-72
2021/08/04 07:50:04;;;;;;;1.67;1.58;;;;;;;21.88;51.04;98609.41;4915655;29;20028;-72
2021/08/04 07:52:29;;;;;;;1.85;1.52;;;;;;;23.07;46.76;98605.63;4915492;29;20055;-70
2021/08/04 07:54:54;;;;;;;3.47;1.65;;;;;;;24.58;42.53;98606.66;4915978;29;20020;-70
2021/08/04 07:57:20;;;;;;;5.07;1.52;;;;;;;26.25;40.22;98604.50;4915802;29;20050;-71
2021/08/04 07:59:45;;;;;;;2.03;1.42;;;;;;;27.11;37.35;98597.09;4915372;29;20035;-71
2021/08/04 08:02:10;;;;;;;1.60;1.25;;;;;;;29.40;33.87;98599.63;4914496;29;20024;-71
2021/08/04 08:04:36;;;;;;;1.85;1.30;;;;;;;29.17;32.96;98601.03;4915719;29;20027;-71
2021/08/04 08:07:02;;;;;;;2.70;1.50;;;;;;;24.81;40.62;98603.06;4915821;29;20032;-71
2021/08/04 08:09:27;;;;;;;2.85;1.27;;;;;;;22.37;46.72;98607.88;4915748;29;20091;-72
2021/08/04 08:11:55;;;;;;;1.75;1.55;;;;;;;22.76;45.20;98599.81;4915586;29;20101;-71
2021/08/04 08:14:20;;;;;;;3.17;1.60;;;;;;;21.69;46.72;98604.50;4914597;29;20013;-70
2021/08/04 08:16:45;;;;;;;2.10;1.58;;;;;;;23.74;43.83;98594.53;4915563;29;20032;-70
2021/08/04 08:19:11;;;;;;;2.00;1.60;;;;;;;22.19;48.60;98602.06;4915737;29;20032;-70
2021/08/04 08:21:36;;;;;;;2.05;1.50;;;;;;;23.55;45.53;98584.47;4915594;29;20063;-70
2021/08/04 08:24:02;;;;;;;1.30;1.20;;;;;;;23.95;43.14;98597.38;4915474;29;20400;-70
2021/08/04 08:26:27;;;;;;;3.25;1.63;;;;;;;26.39;38.73;98588.22;4915443;29;20021;-71
2021/08/04 08:28:53;;;;;;;2.42;1.20;;;;;;;27.76;37.12;98587.69;4915774;29;20099;-72
2021/08/04 08:31:18;;;;;;;2.55;1.58;;;;;;;26.72;37.49;98604.09;4915296;29;20030;-72
2021/08/04 08:33:43;;;;;;;4.57;1.48;;;;;;;24.57;41.44;98599.69;4911522;29;20028;-74
2021/08/04 08:36:09;;;;;;;1.52;1.30;;;;;;;22.65;45.97;98605.03;4914615;29;20028;-74
2021/08/04 08:38:34;;;;;;;1.75;1.65;;;;;;;22.10;48.71;98603.53;4911166;29;20044;-73
2021/08/04 08:41:00;;;;;;;1.73;1.63;;;;;;;21.46;48.93;98620.97;4915327;29;20079;-74
2021/08/04 08:43:26;;;;;;;3.00;1.60;;;;;;;20.80;51.41;98619.88;4915288;29;20028;-73
2021/08/04 08:45:53;;;;;;;1.60;1.50;;;;;;;20.78;51.89;98612.06;4915355;29;20497;-74
2021/08/04 08:48:18;;;;;;;1.88;1.70;;;;;;;21.23;49.48;98602.22;4914962;29;20035;-74
2021/08/04 08:50:48;;;;;;;3.88;1.70;;;;;;;21.08;49.52;98608.47;4915337;29;20047;-73
2021/08/04 08:53:13;;;;;;;1.40;1.30;;;;;;;21.52;48.69;98612.69;4914983;29;20028;-74
2021/08/04 08:55:39;;;;;;;1.58;1.40;;;;;;;22.29;48.52;98608.44;4914956;29;20036;-74
2021/08/04 08:58:04;;;;;;;3.38;1.95;;;;;;;22.48;46.46;98610.63;4865180;29;20058;-74
2021/08/04 09:00:30;;;;;;;2.40;1.60;;;;;;;22.27;48.50;98611.16;4914757;29;20028;-73
2021/08/04 09:02:55;;;;;;;1.98;1.45;;;;;;;22.56;49.06;98600.38;4910944;29;20030;-74
2021/08/04 09:05:21;;;;;;;3.58;1.40;;;;;;;22.07;48.30;98601.09;4914830;29;20031;-74
2021/08/04 09:07:47;;;;;;;2.75;1.33;;;;;;;21.62;48.31;98589.19;4915154;29;20028;-74
2021/08/04 09:10:30;;;;;;;2.15;1.75;;;;;;;21.32;50.04;98594.66;4914409;29;20111;-73
2021/08/04 09:12:58;;;;;;;2.17;1.63;;;;;;;20.74;50.98;98589.53;4914767;29;20080;-73
2021/08/04 09:15:30;;;;;;;1.65;1.55;;;;;;;20.33;51.59;98585.91;4914655;29;20072;-73
2021/08/04 09:18:09;;;;;;;4.20;1.52;;;;;;;19.61;55.47;98588.41;4914147;29;20068;-74
2021/08/04 09:20:46;;;;;;;2.05;1.42;;;;;;;20.72;52.48;98590.53;4907888;29;20517;-70
2021/08/04 09:23:16;;;;;;;2.65;1.63;;;;;;;21.46;49.86;98582.28;4914616;29;20553;-70
2021/08/04 09:26:13;;;;;;;3.78;1.42;;;;;;;22.33;48.75;98573.78;4915061;29;20024;-70
2021/08/04 09:29:03;;;;;;;1.95;1.52;;;;;;;22.93;44.77;98560.84;4911376;29;20020;-70
2021/08/04 09:31:56;;;;;;;1.45;1.33;;;;;;;24.10;42.20;98564.44;4918201;29;20087;-70
2021/08/04 09:34:30;;;;;;;3.38;1.50;;;;;;;24.18;43.03;98562.06;4917360;29;20059;-70
2021/08/04 09:37:21;;;;;;;2.58;1.75;;;;;;;24.16;42.12;98547.25;4916788;29;20040;-70
2021/08/04 09:39:57;;;;;;;4.70;1.50;;;;;;;24.48;42.11;98550.06;4917126;29;20036;-72
2021/08/04 09:42:41;;;;;;;1.90;1.20;;;;;;;24.93;39.66;98550.03;4917824;29;20032;-70
2021/08/04 09:45:06;;;;;;;1.40;1.30;;;;;;;26.15;38.32;98542.53;4917296;29;20024;-71
2021/08/04 09:47:32;;;;;;;2.65;1.35;;;;;;;26.59;36.82;98546.69;4917878;29;20024;-71
2021/08/04 09:49:58;;;;;;;2.10;1.38;;;;;;;24.43;41.58;98549.59;4917936;29;20035;-70
2021/08/04 09:52:25;;;;;;;6.43;1.48;;;;;;;26.02;39.27;98547.22;4902279;29;20024;-73
2021/08/04 09:54:50;;;;;;;3.33;1.75;;;;;;;23.78;44.91;98545.72;4917660;29;20028;-71
2021/08/04 09:57:16;;;;;;;1.38;1.23;;;;;;;24.54;42.34;98546.94;4917586;29;20512;-71
2021/08/04 10:00:10;;;;;;;2.30;1.38;;;;;;;26.72;38.05;98538.47;4917939;29;20393;-71
2021/08/04 10:02:36;;;;;;;0.98;0.98;;;;;;;26.14;38.73;98538.19;4907646;29;20082;-71
2021/08/04 10:05:20;;;;;;;1.48;1.30;;;;;;;25.16;40.67;98538.44;4917742;29;20059;-71
2021/08/04 10:08:05;;;;;;;2.00;1.40;;;;;;;26.32;37.72;98539.25;4917474;29;20028;-72
2021/08/04 10:10:42;;;;;;;2.30;1.35;;;;;;;27.26;35.43;98534.53;4901808;29;20020;-72
2021/08/04 10:13:11;;;;;;;1.73;1.35;;;;;;;28.85;35.37;98535.59;4917690;29;20024;-71
2021/08/04 10:15:43;;;;;;;1.83;1.73;;;;;;;28.25;33.85;98543.16;4916264;29;20557;-71
2021/08/04 10:18:13;;;;;;;1.75;1.40;;;;;;;26.75;36.88;98540.88;4914908;29;20067;-71
2021/08/04 10:20:39;;;;;;;4.50;1.50;;;;;;;23.98;42.74;98549.50;4917429;29;20059;-71
2021/08/04 10:23:06;;;;;;;2.50;1.30;;;;;;;22.62;45.37;98547.13;4917455;29;20509;-71
2021/08/04 10:25:33;;;;;;;1.27;1.13;;;;;;;22.26;47.04;98543.50;4917430;29;20055;-72
2021/08/04 10:28:02;;;;;;;2.38;1.38;;;;;;;22.06;46.37;98533.44;4917470;29;20028;-72
2021/08/04 10:30:27;;;;;;;1.60;1.50;;;;;;;22.67;47.59;98528.31;4917595;29;20079;-73
2021/08/04 10:32:53;;;;;;;2.33;2.15;;;;;;;23.49;47.08;98524.06;4913177;29;20115;-73
2021/08/04 10:35:19;;;;;;;4.20;1.45;;;;;;;23.20;44.86;98516.50;4915883;29;20470;-73
2021/08/04 10:37:47;;;;;;;2.22;1.38;;;;;;;23.29;45.26;98515.84;4916770;29;20083;-73
2021/08/04 10:40:13;;;;;;;1.50;1.40;;;;;;;24.39;42.61;98511.06;4912942;29;20039;-73
2021/08/04 10:42:43;;;;;;;1.92;1.40;;;;;;;24.18;42.73;98514.41;4911208;29;20028;-73
2021/08/04 10:45:24;;;;;;;2.13;1.38;;;;;;;24.33;42.69;98515.00;4915301;29;20033;-73
2021/08/04 10:47:56;;;;;;;3.05;1.35;;;;;;;25.67;40.41;98499.72;4908177;29;20935;-73
2021/08/04 10:50:22;;;;;;;6.00;1.30;;;;;;;27.88;36.89;98501.31;4908753;29;20031;-73
2021/08/04 10:52:56;;;;;;;2.38;1.10;;;;;;;26.20;39.57;98491.66;4908199;29;20039;-73
2021/08/04 10:55:22;;;;;;;2.55;1.40;;;;;;;25.09;40.07;98494.81;4908384;29;20024;-73
2021/08/04 10:58:05;;;;;;;3.40;1.40;;;;;;;25.69;39.64;98493.31;4908828;29;20086;-73
2021/08/04 11:00:34;;;;;;;2.13;1.42;;;;;;;25.68;39.97;98486.34;4907360;29;20418;-73
2021/08/04 11:03:00;;;;;;;;;;;;;;;26.39;40.67;98481.94;4908820;29;20096;-73
2021/08/04 11:06:03;;;;;;;1.65;1.25;;;;;;;24.67;40.77;98494.66;4908127;29;19919;-73
2021/08/04 11:08:28;;;;;;;1.70;1.40;;;;;;;25.07;41.72;98488.78;4907517;29;20028;-73
2021/08/04 11:10:54;;;;;;;1.77;1.17;;;;;;;24.92;42.07;98490.84;4906474;29;20047;-74
2021/08/04 11:13:41;;;;;;;2.05;1.60;;;;;;;22.70;44.70;98491.13;4898745;29;20473;-74
2021/08/04 11:16:29;;;;;;;1.83;1.45;;;;;;;21.91;46.61;98492.28;4898675;29;20036;-74
2021/08/04 11:19:02;;;;;;;4.60;1.38;;;;;;;24.24;42.66;98482.16;4898767;29;20044;-74
2021/08/04 11:21:28;;;;;;;4.97;1.50;;;;;;;22.59;45.95;98489.25;4899719;29;20036;-74
2021/08/04 11:23:53;;;;;;;1.35;1.20;;;;;;;22.43;46.50;98478.09;4898310;29;20024;-74
2021/08/04 11:26:28;;;;;;;1.77;1.40;;;;;;;24.12;42.45;98477.78;4899370;29;20494;-74
2021/08/04 11:28:54;;;;;;;2.90;1.35;;;;;;;25.24;40.82;98472.34;4899328;29;20032;-74
2021/08/04 11:31:20;;;;;;;2.05;1.35;;;;;;;25.88;39.41;98472.25;4895570;29;20541;-74
2021/08/04 11:33:46;;;;;;;1.63;1.45;;;;;;;24.61;42.65;98473.94;4892644;29;20036;-74
2021/08/04 11:36:15;;;;;;;2.00;1.40;;;;;;;25.46;40.61;98470.53;4890914;29;20058;-73
2021/08/04 11:38:58;;;;;;;3.50;1.30;;;;;;;24.43;41.04;98465.66;4890815;29;20039;-73
2021/08/04 11:41:28;;;;;;;1.40;1.30;;;;;;;23.30;43.82;98475.22;4892490;29;20036;-74
2021/08/04 11:44:00;;;;;;;1.83;1.40;;;;;;;22.83;45.50;98470.78;4901407;29;20020;-73
2021/08/04 11:46:31;;;;;;;4.30;1.30;;;;;;;23.43;44.93;98469.84;4901493;29;20028;-74
2021/08/04 11:48:57;;;;;;;1.52;1.35;;;;;;;24.21;42.01;98471.78;4901111;29;20111;-73
2021/08/04 11:51:44;;;;;;;5.68;1.75;;;;;;;24.34;44.22;98456.63;4899920;29;20064;-73
2021/08/04 11:54:12;;;;;;;1.38;1.23;;;;;;;23.39;43.78;98475.50;4902757;29;20028;-71
2021/08/04 11:56:48;;;;;;;3.90;1.40;;;;;;;23.76;45.76;98460.34;4902373;29;20542;-71
2021/08/04 11:59:14;;;;;;;1.48;1.23;;;;;;;23.88;43.97;98464.66;4901521;29;20035;-71
2021/08/04 12:01:52;;;;;;;2.45;1.38;;;;;;;25.01;42.70;98453.00;4905545;29;20035;-71
2021/08/04 12:04:17;;;;;;;2.40;1.27;;;;;;;24.42;42.80;98457.81;4908241;29;20122;-71
2021/08/04 12:06:55;;;;;;;1.70;1.45;;;;;;;23.20;46.51;98468.94;4908520;29;20694;-72
2021/08/04 12:09:31;;;;;;;1.52;1.42;;;;;;;22.68;45.88;98459.53;4908227;29;20600;-71
2021/08/04 12:11:58;;;;;;;2.42;1.33;;;;;;;23.38;45.54;98465.88;4907627;29;20620;-71
2021/08/04 12:14:23;;;;;;;1.52;1.42;;;;;;;24.07;44.86;98461.44;4907900;29;20103;-71
2021/08/04 12:16:56;;;;;;;4.90;1.63;;;;;;;24.25;44.89;98457.34;4907042;29;20032;-71
2021/08/04 12:19:30;;;;;;;1.77;1.40;;;;;;;24.30;43.47;98459.63;4908978;29;20067;-71
2021/08/04 12:21:56;;;;;;;1.45;1.30;;;;;;;23.94;44.34;98448.34;4907640;29;20024;-71
2021/08/04 12:24:21;;;;;;;3.97;1.65;;;;;;;22.77;46.74;98445.66;4907643;29;20401;-71
2021/08/04 12:26:48;;;;;;;2.10;1.48;;;;;;;23.43;47.58;98450.50;4906915;29;20024;-71
2021/08/04 12:29:19;;;;;;;1.60;1.42;;;;;;;23.85;45.23;98444.59;4907996;29;20080;-71
2021/08/04 12:32:08;;;;;;;1.40;1.30;;;;;;;23.65;45.77;98442.66;4907651;29;20058;-71
2021/08/04 12:35:02;;;;;;;2.28;1.02;;;;;;;23.77;44.90;98446.97;4907736;29;20032;-71
2021/08/04 12:37:31;;;;;;;1.20;1.10;;;;;;;24.03;45.02;98452.03;4908696;29;20087;-71
2021/08/04 12:40:09;;;;;;;1.63;1.50;;;;;;;23.75;45.50;98448.91;4909082;29;20039;-71
2021/08/04 12:42:35;;;;;;;1.45;1.35;;;;;;;24.25;44.22;98436.16;4908305;29;20119;-71
2021/08/04 12:45:29;;;;;;;2.30;1.30;;;;;;;24.04;43.53;98443.16;4907793;29;20666;-71
2021/08/04 12:48:00;;;;;;;1.38;1.08;;;;;;;23.04;46.45;98452.53;4908140;29;20146;-71
2021/08/04 12:50:32;;;;;;;1.33;1.20;;;;;;;23.26;47.90;98449.16;4908937;29;20047;-71
2021/08/04 12:53:01;;;;;;;3.72;1.20;;;;;;;23.93;44.50;98443.13;4908998;29;20031;-71
2021/08/04 12:55:26;;;;;;;1.55;1.27;;;;;;;23.78;43.77;98442.53;4908323;29;20028;-71
2021/08/04 12:58:06;;;;;;;1.65;1.30;;;;;;;23.08;46.31;98438.13;4908141;29;21499;-71
2021/08/04 13:00:36;;;;;;;2.40;1.40;;;;;;;22.36;49.01;98443.38;4908832;29;20035;-71
2021/08/04 13:03:06;;;;;;;3.35;1.33;;;;;;;23.23;47.30;98442.28;4911875;29;20035;-71
2021/08/04 13:05:32;;;;;;;5.78;5.18;;;;;;;23.70;46.96;98435.19;4912632;29;20112;-71
2021/08/04 13:07:57;;;;;;;1.63;1.30;;;;;;;23.15;46.31;98442.00;4912226;29;20115;-71
2021/08/04 13:10:41;;;;;;;1.50;1.20;;;;;;;23.60;46.35;98434.19;4912476;29;20024;-71
2021/08/04 13:13:07;;;;;;;1.23;1.13;;;;;;;23.79;46.43;98429.19;4912858;29;20055;-71
2021/08/04 13:15:56;;;;;;;1.48;1.27;;;;;;;24.08;45.79;98413.69;4912392;29;20111;-71
2021/08/04 13:18:34;;;;;;;1.43;1.33;;;;;;;24.44;44.23;98418.84;4910939;29;20135;-71
2021/08/04 13:21:11;;;;;;;1.50;1.40;;;;;;;24.30;45.70;98418.09;4912004;29;20501;-71
2021/08/04 13:23:37;;;;;;;2.47;1.20;;;;;;;23.61;46.07;98420.00;4911619;29;20036;-71
2021/08/04 13:26:02;;;;;;;1.33;1.20;;;;;;;24.08;47.62;98418.13;4912514;29;20402;-71
2021/08/04 13:28:37;;;;;;;6.47;1.40;;;;;;;23.36;45.31;98425.50;4912828;29;20059;-72
2021/08/04 13:31:05;;;;;;;1.10;1.10;;;;;;;23.06;47.23;98410.97;4911785;29;20036;-70
2021/08/04 13:33:31;;;;;;;1.60;1.27;;;;;;;21.19;50.72;98407.50;4912258;29;20039;-70
2021/08/04 13:36:01;;;;;;;2.78;1.60;;;;;;;21.14;51.21;98407.81;4912258;29;20024;-71
2021/08/04 13:38:27;;;;;;;1.55;1.45;;;;;;;21.44;51.48;98404.06;4912126;29;20032;-71
2021/08/04 13:40:53;;;;;;;4.00;1.30;;;;;;;20.88;51.91;98406.06;4912221;29;20035;-71
2021/08/04 13:43:20;;;;;;;1.50;1.30;;;;;;;20.68;52.53;98408.19;4911827;29;20503;-71
2021/08/04 13:45:46;;;;;;;1.27;1.10;;;;;;;21.54;50.67;98402.50;4912001;29;20091;-71
2021/08/04 13:48:11;;;;;;;3.10;1.60;;;;;;;21.57;51.86;98409.38;4910766;29;20732;-71
2021/08/04 13:50:36;;;;;;;1.58;1.40;;;;;;;21.50;52.98;98403.66;4911791;29;20036;-71
2021/08/04 13:53:02;;;;;;;2.10;1.20;;;;;;;21.46;50.75;98402.16;4910940;29;20028;-71
2021/08/04 13:55:31;;;;;;;4.05;1.58;;;;;;;21.25;52.01;98399.19;4911650;29;20071;-69
2021/08/04 13:57:57;;;;;;;1.90;1.43;;;;;;;21.59;53.62;98403.03;4912183;29;20119;-70
2021/08/04 14:00:25;;;;;;;1.27;1.17;;;;;;;21.75;51.59;98397.53;4911724;29;20063;-70
2021/08/04 14:02:52;;;;;;;1.00;1.00;;;;;;;22.23;51.22;98397.69;4911537;29;20059;-70
2021/08/04 14:05:18;;;;;;;1.75;1.10;;;;;;;22.24;49.60;98389.66;4912462;29;20434;-70
2021/08/04 14:07:46;;;;;;;1.38;1.23;;;;;;;21.66;50.98;98393.75;4909680;29;20414;-70
2021/08/04 14:10:13;;;;;;;1.58;1.40;;;;;;;21.94;50.28;98391.78;4910806;29;20706;-70
2021/08/04 14:12:40;;;;;;;1.58;1.20;;;;;;;22.07;49.94;98392.63;4910130;29;20028;-70
2021/08/04 14:15:07;;;;;;;1.58;1.27;;;;;;;21.64;49.72;98393.00;4911582;29;20422;-70
2021/08/04 14:17:33;;;;;;;1.30;1.20;;;;;;;21.88;48.94;98387.81;4910744;29;20059;-70
2021/08/04 14:19:58;;;;;;;2.50;1.40;;;;;;;21.93;49.17;98385.69;4911341;29;20028;-70
2021/08/04 14:22:24;;;;;;;1.70;1.20;;;;;;;21.90;50.09;98385.88;4910836;29;20036;-70
2021/08/04 14:24:50;;;;;;;1.40;1.17;;;;;;;21.95;48.91;98390.84;4911388;29;20045;-71
2021/08/04 14:27:15;;;;;;;2.20;1.23;;;;;;;22.00;49.20;98386.09;4911478;29;20477;-70
2021/08/04 14:29:41;;;;;;;1.48;1.27;;;;;;;21.95;50.49;98388.19;4912649;29;20035;-71
2021/08/04 14:32:07;;;;;;;1.00;1.00;;;;;;;21.98;48.41;98382.72;4911590;29;20043;-72
2021/08/04 14:34:34;;;;;;;34.33;25.92;;;;;;;21.95;50.64;98385.56;4911855;29;20032;-71
2021/08/04 14:37:00;;;;;;;4.97;1.77;;;;;;;21.65;48.64;98385.94;4911020;29;20035;-71
2021/08/04 14:39:25;;;;;;;1.20;1.10;;;;;;;21.34;49.68;98381.94;4909052;29;20036;-72
2021/08/04 14:41:51;;;;;;;2.75;1.17;;;;;;;21.67;52.33;98389.31;4908263;29;20517;-72
2021/08/04 14:44:16;;;;;;;1.90;1.30;;;;;;;21.12;51.77;98383.34;4906981;29;20036;-73
2021/08/04 14:46:42;;;;;;;1.90;1.55;;;;;;;21.13;51.56;98385.06;4908318;29;20115;-70
2021/08/04 14:49:07;;;;;;;1.40;1.27;;;;;;;20.86;52.71;98381.63;4911336;29;20035;-70
2021/08/04 14:51:33;;;;;;;2.88;1.60;;;;;;;20.69;53.30;98380.06;4908926;29;20059;-73
2021/08/04 14:53:59;;;;;;;1.80;1.42;;;;;;;21.04;54.42;98385.66;4909559;29;20028;-76
2021/08/04 14:56:25;;;;;;;2.03;1.25;;;;;;;20.92;55.23;98386.47;4909336;29;20051;-73
2021/08/04 14:58:50;;;;;;;2.47;1.33;;;;;;;21.04;53.76;98375.97;4908877;29;20102;-75
2021/08/04 15:01:15;;;;;;;1.88;1.52;;;;;;;20.95;54.00;98381.84;4908557;29;20032;-77
2021/08/04 15:03:41;;;;;;;3.38;3.00;;;;;;;20.79;53.37;98381.16;4909074;29;20043;-74
2021/08/04 15:06:07;;;;;;;1.50;1.40;;;;;;;20.83;52.36;98376.53;4908300;29;20035;-77
2021/08/04 15:08:32;;;;;;;3.17;1.20;;;;;;;20.89;52.79;98376.16;4908516;29;20044;-75
2021/08/04 15:10:58;;;;;;;1.52;1.27;;;;;;;20.93;54.01;98380.25;4908186;29;20504;-76
2021/08/04 15:13:25;;;;;;;2.03;1.48;;;;;;;20.85;54.83;98374.66;4908450;29;20024;-75
2021/08/04 15:15:51;;;;;;;1.65;1.38;;;;;;;20.34;56.44;98380.56;4907973;29;20029;-77
2021/08/04 15:18:17;;;;;;;1.70;1.33;;;;;;;20.25;59.58;98381.97;4906852;29;20091;-77
2021/08/04 15:20:42;;;;;;;6.28;1.40;;;;;;;20.22;59.74;98382.19;4907652;29;20028;-77
2021/08/04 15:23:07;;;;;;;3.38;1.60;;;;;;;20.12;60.40;98381.09;4905776;29;20123;-77
2021/08/04 15:25:33;;;;;;;2.17;1.70;;;;;;;20.15;61.96;98377.41;4906225;29;20060;-76
2021/08/04 15:28:00;;;;;;;2.10;1.50;;;;;;;20.10;62.24;98377.69;4908064;29;20405;-76
2021/08/04 15:30:26;;;;;;;1.60;1.50;;;;;;;19.99;63.08;98374.91;4907777;29;20036;-76
2021/08/04 15:32:53;;;;;;;1.73;1.55;;;;;;;19.98;64.21;98383.75;4907422;29;20091;-76
2021/08/04 15:35:19;;;;;;;3.83;1.52;;;;;;;19.92;64.35;98376.22;4907520;29;20028;-76
2021/08/04 15:37:44;;;;;;;2.72;1.60;;;;;;;19.83;64.90;98379.44;4907846;29;20044;-76
2021/08/04 15:40:10;;;;;;;1.63;1.40;;;;;;;19.85;66.01;98377.56;4907585;29;20521;-77
2021/08/04 15:42:35;;;;;;;1.63;1.40;;;;;;;19.54;67.24;98379.41;4907367;29;20117;-76
2021/08/04 15:45:01;;;;;;;4.97;1.50;;;;;;;19.49;67.12;98381.47;4907608;29;20032;-76
2021/08/04 15:47:26;;;;;;;1.90;1.80;;;;;;;19.64;66.53;98379.72;4907494;29;20489;-76
2021/08/04 15:49:52;;;;;;;4.80;1.45;;;;;;;19.62;66.34;98368.44;4906910;29;20028;-76
2021/08/04 15:52:17;;;;;;;2.65;1.55;;;;;;;19.70;66.66;98367.03;4907251;29;20028;-76
2021/08/04 15:54:42;;;;;;;1.85;1.30;;;;;;;19.94;66.52;98356.78;4907429;29;20107;-76